createdAt,value
2019-05-20T00:00:41.024Z,0.00
2019-05-20T00:01:40.982Z,0.00
2019-05-20T00:02:40.989Z,0.00
2019-05-20T00:03:40.964Z,0.00
2019-05-20T00:04:40.929Z,0.00
2019-05-20T00:05:40.921Z,0.00
2019-05-20T00:06:40.887Z,0.00
2019-05-20T00:07:40.864Z,0.00
2019-05-20T00:08:40.838Z,0.00
2019-05-20T00:09:40.803Z,0.00
2019-05-20T00:10:40.800Z,0.00
2019-05-20T00:11:40.778Z,0.00
2019-05-20T00:12:40.751Z,0.00
2019-05-20T00:13:40.729Z,0.00
2019-05-20T00:14:40.707Z,0.00
2019-05-20T00:15:40.681Z,0.00
2019-05-20T00:16:40.662Z,0.00
2019-05-20T00:17:40.643Z,0.00
2019-05-20T00:18:40.617Z,0.00
2019-05-20T00:19:40.574Z,0.00
2019-05-20T00:20:40.575Z,0.00
2019-05-20T00:21:40.527Z,0.00
2019-05-20T00:22:40.528Z,0.00
2019-05-20T00:23:40.503Z,0.00
2019-05-20T00:24:40.487Z,0.00
2019-05-20T00:25:40.464Z,0.00
2019-05-20T00:26:40.439Z,0.00
2019-05-20T00:27:40.417Z,0.00
2019-05-20T00:28:40.404Z,0.00
2019-05-20T00:29:40.362Z,0.00
2019-05-20T00:30:40.353Z,0.00
2019-05-20T00:31:40.321Z,0.00
2019-05-20T00:32:42.097Z,0.00
2019-05-20T00:33:40.273Z,0.00
2019-05-20T00:34:40.257Z,0.00
2019-05-20T00:35:40.233Z,0.00
2019-05-20T00:36:40.222Z,0.00
2019-05-20T00:37:40.187Z,0.00
2019-05-20T00:38:40.166Z,0.00
2019-05-20T00:39:40.143Z,0.00
2019-05-20T00:40:40.124Z,0.00
2019-05-20T00:41:40.095Z,0.00
2019-05-20T00:42:40.075Z,0.00
2019-05-20T00:43:40.062Z,0.00
2019-05-20T00:44:40.035Z,0.00
2019-05-20T00:45:40.014Z,0.00
2019-05-20T00:46:39.986Z,0.00
2019-05-20T00:47:39.960Z,0.00
2019-05-20T00:48:39.942Z,0.00
2019-05-20T00:49:39.918Z,0.00
2019-05-20T00:50:39.875Z,0.00
2019-05-20T00:51:39.856Z,0.00
2019-05-20T00:52:39.854Z,0.00
2019-05-20T00:53:39.833Z,0.00
2019-05-20T00:54:39.806Z,0.00
2019-05-20T00:55:39.779Z,0.00
2019-05-20T00:56:39.760Z,0.00
2019-05-20T00:57:39.742Z,0.00
2019-05-20T00:58:39.717Z,0.00
2019-05-20T00:59:39.692Z,0.00
2019-05-20T01:00:39.649Z,0.00
2019-05-20T01:01:39.671Z,0.00
2019-05-20T01:02:39.627Z,0.00
2019-05-20T01:03:39.604Z,0.00
2019-05-20T01:04:39.583Z,0.00
2019-05-20T01:05:39.553Z,0.00
2019-05-20T01:06:39.541Z,0.00
2019-05-20T01:07:39.491Z,0.00
2019-05-20T01:08:39.473Z,0.00
2019-05-20T01:09:39.452Z,0.00
2019-05-20T01:10:39.444Z,0.00
2019-05-20T01:11:39.418Z,0.00
2019-05-20T01:12:39.394Z,0.00
2019-05-20T01:13:39.374Z,0.00
2019-05-20T01:14:39.372Z,0.00
2019-05-20T01:15:39.332Z,0.00
2019-05-20T01:16:39.312Z,0.00
2019-05-20T01:17:39.264Z,0.00
2019-05-20T01:18:39.258Z,0.00
2019-05-20T01:19:39.221Z,0.00
2019-05-20T01:20:39.197Z,0.00
2019-05-20T01:21:39.179Z,0.00
2019-05-20T01:22:39.167Z,0.00
2019-05-20T01:23:39.143Z,0.00
2019-05-20T01:24:39.128Z,0.00
2019-05-20T01:25:39.101Z,0.00
2019-05-20T01:26:39.083Z,0.00
2019-05-20T01:27:39.053Z,0.00
2019-05-20T01:28:39.042Z,0.00
2019-05-20T01:29:39.012Z,0.00
2019-05-20T01:30:38.988Z,0.00
2019-05-20T01:31:38.973Z,0.00
2019-05-20T01:32:38.948Z,0.00
2019-05-20T01:33:38.920Z,0.00
2019-05-20T01:34:38.894Z,0.00
2019-05-20T01:35:38.876Z,0.00
2019-05-20T01:36:38.848Z,0.00
2019-05-20T01:37:38.823Z,0.00
2019-05-20T01:38:38.799Z,0.00
2019-05-20T01:39:38.778Z,0.00
2019-05-20T01:40:38.762Z,0.00
2019-05-20T01:41:38.762Z,0.00
2019-05-20T01:42:38.716Z,0.00
2019-05-20T01:43:38.696Z,0.00
2019-05-20T01:44:38.670Z,0.00
2019-05-20T01:45:38.643Z,0.00
2019-05-20T01:46:38.600Z,0.00
2019-05-20T01:47:38.607Z,0.00
2019-05-20T01:48:38.575Z,0.00
2019-05-20T01:49:38.551Z,0.00
2019-05-20T01:50:38.508Z,0.00
2019-05-20T01:51:38.494Z,0.00
2019-05-20T01:52:38.463Z,0.00
2019-05-20T01:53:38.438Z,0.00
2019-05-20T01:54:38.434Z,0.00
2019-05-20T01:55:38.419Z,0.00
2019-05-20T01:56:38.386Z,0.00
2019-05-20T01:57:38.370Z,0.00
2019-05-20T01:58:39.745Z,0.00
2019-05-20T01:59:38.318Z,0.00
2019-05-20T02:00:38.310Z,0.00
2019-05-20T02:01:38.282Z,0.00
2019-05-20T02:02:38.261Z,0.00
2019-05-20T02:03:38.311Z,0.00
2019-05-20T02:04:38.209Z,0.00
2019-05-20T02:05:38.249Z,0.00
2019-05-20T02:06:38.159Z,0.00
2019-05-20T02:07:38.199Z,0.00
2019-05-20T02:08:38.098Z,0.00
2019-05-20T02:09:38.070Z,0.00
2019-05-20T02:10:38.075Z,0.00
2019-05-20T02:11:38.053Z,0.00
2019-05-20T02:12:38.018Z,0.00
2019-05-20T02:13:37.995Z,0.00
2019-05-20T02:14:37.979Z,0.00
2019-05-20T02:15:37.955Z,0.00
2019-05-20T02:16:37.913Z,0.00
2019-05-20T02:17:37.890Z,0.00
2019-05-20T02:18:37.883Z,0.00
2019-05-20T02:19:37.860Z,0.00
2019-05-20T02:20:37.847Z,0.00
2019-05-20T02:21:37.821Z,0.00
2019-05-20T02:22:37.790Z,0.00
2019-05-20T02:23:37.772Z,0.00
2019-05-20T02:24:37.752Z,0.00
2019-05-20T02:25:37.737Z,0.00
2019-05-20T02:26:37.705Z,0.00
2019-05-20T02:27:37.681Z,0.00
2019-05-20T02:28:37.654Z,0.00
2019-05-20T02:29:37.634Z,0.00
2019-05-20T02:30:37.634Z,0.00
2019-05-20T02:31:37.586Z,0.00
2019-05-20T02:32:37.544Z,0.00
2019-05-20T02:33:50.887Z,0.00
2019-05-20T02:34:37.506Z,0.00
2019-05-20T02:35:37.505Z,0.00
2019-05-20T02:36:37.450Z,0.00
2019-05-20T02:37:37.425Z,0.00
2019-05-20T02:38:37.408Z,0.00
2019-05-20T02:39:37.387Z,0.00
2019-05-20T02:40:37.378Z,0.00
2019-05-20T02:41:37.361Z,0.00
2019-05-20T02:42:37.334Z,0.00
2019-05-20T02:43:37.319Z,0.00
2019-05-20T02:44:37.281Z,0.00
2019-05-20T02:45:37.365Z,0.00
2019-05-20T02:46:37.240Z,0.00
2019-05-20T02:47:37.232Z,0.00
2019-05-20T02:48:37.213Z,0.00
2019-05-20T02:49:37.175Z,0.00
2019-05-20T02:50:37.161Z,0.00
2019-05-20T02:51:37.121Z,0.00
2019-05-20T02:52:37.101Z,0.00
2019-05-20T02:53:37.080Z,0.00
2019-05-20T02:54:37.061Z,0.00
2019-05-20T02:55:37.040Z,0.00
2019-05-20T02:56:37.028Z,0.00
2019-05-20T02:57:36.986Z,0.00
2019-05-20T02:58:36.943Z,0.00
2019-05-20T02:59:36.944Z,0.00
2019-05-20T03:00:36.925Z,0.00
2019-05-20T03:01:36.886Z,0.00
2019-05-20T03:02:36.869Z,0.00
2019-05-20T03:03:36.843Z,0.00
2019-05-20T03:04:36.824Z,0.00
2019-05-20T03:05:36.798Z,0.00
2019-05-20T03:06:36.757Z,0.00
2019-05-20T03:07:36.751Z,0.00
2019-05-20T03:08:36.746Z,0.00
2019-05-20T03:09:36.715Z,0.00
2019-05-20T03:10:36.681Z,0.00
2019-05-20T03:11:36.664Z,0.00
2019-05-20T03:12:36.634Z,0.00
2019-05-20T03:13:36.621Z,0.00
2019-05-20T03:14:36.591Z,0.00
2019-05-20T03:15:36.570Z,0.00
2019-05-20T03:16:36.559Z,0.00
2019-05-20T03:17:36.507Z,0.00
2019-05-20T03:18:36.496Z,0.00
2019-05-20T03:19:36.466Z,0.00
2019-05-20T03:20:36.452Z,0.00
2019-05-20T03:21:36.428Z,0.00
2019-05-20T03:22:36.403Z,0.00
2019-05-20T03:23:36.377Z,0.00
2019-05-20T03:24:36.360Z,0.00
2019-05-20T03:25:36.341Z,0.00
2019-05-20T03:26:36.305Z,0.00
2019-05-20T03:27:36.284Z,0.00
2019-05-20T03:28:36.264Z,0.00
2019-05-20T03:29:36.236Z,0.00
2019-05-20T03:30:36.208Z,0.00
2019-05-20T03:31:36.189Z,0.00
2019-05-20T03:32:36.162Z,0.00
2019-05-20T03:33:36.156Z,0.00
2019-05-20T03:34:46.665Z,0.00
2019-05-20T03:35:36.087Z,0.00
2019-05-20T03:36:36.075Z,0.00
2019-05-20T03:37:36.025Z,0.00
2019-05-20T03:38:36.023Z,0.00
2019-05-20T03:39:36.002Z,0.00
2019-05-20T03:40:35.959Z,0.00
2019-05-20T03:41:35.953Z,0.00
2019-05-20T03:42:35.933Z,0.00
2019-05-20T03:43:35.886Z,0.00
2019-05-20T03:44:35.859Z,0.00
2019-05-20T03:45:35.883Z,0.00
2019-05-20T03:46:35.823Z,0.00
2019-05-20T03:47:35.851Z,0.00
2019-05-20T03:48:35.812Z,0.00
2019-05-20T03:49:35.779Z,0.00
2019-05-20T03:50:35.743Z,0.00
2019-05-20T03:51:35.721Z,0.00
2019-05-20T03:52:35.699Z,0.00
2019-05-20T03:53:35.670Z,0.00
2019-05-20T03:54:35.646Z,0.00
2019-05-20T03:55:35.629Z,0.00
2019-05-20T03:56:35.610Z,0.00
2019-05-20T03:57:35.578Z,0.00
2019-05-20T03:58:35.560Z,0.00
2019-05-20T03:59:35.542Z,0.00
2019-05-20T04:00:35.505Z,0.00
2019-05-20T04:01:35.487Z,0.00
2019-05-20T04:02:35.475Z,0.00
2019-05-20T04:03:35.439Z,0.00
2019-05-20T04:04:35.421Z,0.00
2019-05-20T04:05:35.400Z,0.00
2019-05-20T04:06:35.379Z,0.00
2019-05-20T04:07:35.349Z,0.00
2019-05-20T04:08:35.330Z,0.00
2019-05-20T04:09:35.302Z,0.00
2019-05-20T04:10:35.284Z,0.00
2019-05-20T04:11:35.292Z,0.00
2019-05-20T04:12:35.239Z,0.00
2019-05-20T04:13:35.202Z,0.00
2019-05-20T04:14:35.191Z,0.00
2019-05-20T04:15:35.143Z,0.00
2019-05-20T04:16:35.143Z,0.00
2019-05-20T04:17:35.099Z,0.00
2019-05-20T04:18:35.091Z,0.00
2019-05-20T04:19:35.070Z,0.00
2019-05-20T04:20:35.049Z,0.00
2019-05-20T04:21:35.030Z,0.00
2019-05-20T04:22:35.005Z,0.00
2019-05-20T04:23:35.214Z,0.00
2019-05-20T04:24:35.025Z,0.00
2019-05-20T04:25:34.923Z,0.00
2019-05-20T04:26:34.912Z,0.00
2019-05-20T04:27:34.893Z,0.00
2019-05-20T04:28:34.860Z,0.00
2019-05-20T04:29:34.844Z,0.00
2019-05-20T04:30:34.816Z,0.00
2019-05-20T04:31:34.796Z,0.00
2019-05-20T04:32:34.776Z,0.00
2019-05-20T04:33:34.749Z,0.00
2019-05-20T04:34:34.731Z,0.00
2019-05-20T04:35:34.707Z,0.00
2019-05-20T04:36:34.678Z,0.00
2019-05-20T04:37:34.635Z,0.00
2019-05-20T04:38:34.636Z,0.00
2019-05-20T04:39:34.612Z,0.00
2019-05-20T04:40:34.592Z,0.00
2019-05-20T04:41:35.880Z,0.00
2019-05-20T04:42:34.546Z,0.00
2019-05-20T04:43:34.526Z,0.00
2019-05-20T04:44:34.472Z,0.00
2019-05-20T04:45:34.467Z,0.00
2019-05-20T04:46:34.442Z,0.00
2019-05-20T04:47:34.424Z,0.00
2019-05-20T04:48:34.400Z,0.00
2019-05-20T04:49:34.490Z,0.00
2019-05-20T04:50:34.348Z,0.00
2019-05-20T04:51:34.332Z,0.00
2019-05-20T04:52:34.309Z,0.00
2019-05-20T04:53:34.264Z,0.00
2019-05-20T04:54:34.262Z,0.00
2019-05-20T04:55:34.229Z,0.00
2019-05-20T04:56:34.218Z,0.00
2019-05-20T04:57:34.196Z,0.00
2019-05-20T04:58:34.144Z,0.00
2019-05-20T04:59:34.141Z,0.00
2019-05-20T05:00:34.096Z,0.00
2019-05-20T05:01:34.095Z,0.00
2019-05-20T05:02:34.071Z,0.00
2019-05-20T05:03:34.052Z,0.00
2019-05-20T05:04:34.024Z,0.00
2019-05-20T05:05:37.625Z,0.00
2019-05-20T05:06:33.978Z,0.00
2019-05-20T05:07:33.955Z,0.00
2019-05-20T05:08:33.935Z,0.00
2019-05-20T05:09:33.900Z,0.00
2019-05-20T05:10:33.879Z,0.00
2019-05-20T05:11:33.859Z,0.00
2019-05-20T05:12:33.842Z,0.00
2019-05-20T05:13:33.788Z,0.00
2019-05-20T05:14:33.778Z,0.00
2019-05-20T05:15:33.770Z,0.00
2019-05-20T05:16:33.717Z,0.00
2019-05-20T05:17:33.723Z,0.00
2019-05-20T05:18:33.695Z,0.00
2019-05-20T05:19:33.668Z,0.00
2019-05-20T05:20:33.638Z,0.00
2019-05-20T05:21:33.620Z,0.00
2019-05-20T05:22:33.579Z,0.00
2019-05-20T05:23:33.578Z,0.00
2019-05-20T05:24:33.528Z,0.00
2019-05-20T05:25:33.510Z,0.00
2019-05-20T05:26:33.499Z,0.00
2019-05-20T05:27:33.477Z,0.00
2019-05-20T05:28:33.455Z,0.00
2019-05-20T05:29:33.583Z,0.00
2019-05-20T05:30:33.401Z,0.00
2019-05-20T05:31:33.385Z,0.00
2019-05-20T05:32:33.355Z,0.00
2019-05-20T05:33:33.332Z,0.00
2019-05-20T05:34:33.321Z,0.00
2019-05-20T05:35:33.267Z,0.00
2019-05-20T05:36:33.263Z,0.00
2019-05-20T05:37:33.238Z,0.00
2019-05-20T05:38:33.211Z,0.00
2019-05-20T05:39:33.198Z,0.00
2019-05-20T05:40:33.168Z,0.00
2019-05-20T05:41:33.139Z,0.00
2019-05-20T05:42:33.107Z,0.00
2019-05-20T05:43:33.075Z,0.00
2019-05-20T05:44:33.074Z,0.00
2019-05-20T05:45:33.064Z,0.00
2019-05-20T05:46:33.038Z,0.00
2019-05-20T05:47:33.007Z,0.00
2019-05-20T05:48:32.975Z,0.00
2019-05-20T05:49:32.950Z,0.00
2019-05-20T05:50:32.926Z,0.00
2019-05-20T05:51:32.901Z,0.00
2019-05-20T05:52:32.890Z,0.00
2019-05-20T05:53:32.857Z,0.00
2019-05-20T05:54:32.835Z,0.00
2019-05-20T05:55:32.810Z,0.00
2019-05-20T05:56:32.789Z,0.00
2019-05-20T05:57:32.767Z,0.00
2019-05-20T05:58:32.740Z,0.00
2019-05-20T05:59:32.716Z,0.00
2019-05-20T06:00:32.701Z,0.00
2019-05-20T06:01:32.668Z,0.00
2019-05-20T06:02:32.651Z,0.00
2019-05-20T06:03:32.624Z,0.00
2019-05-20T06:04:32.599Z,0.00
2019-05-20T06:05:32.575Z,0.00
2019-05-20T06:06:32.550Z,0.00
2019-05-20T06:07:32.524Z,0.00
2019-05-20T06:08:32.483Z,0.00
2019-05-20T06:09:32.460Z,0.00
2019-05-20T06:10:35.562Z,0.00
2019-05-20T06:11:32.430Z,0.00
2019-05-20T06:12:32.388Z,0.00
2019-05-20T06:13:32.364Z,0.00
2019-05-20T06:14:32.354Z,0.00
2019-05-20T06:15:32.335Z,0.00
2019-05-20T06:16:36.410Z,0.00
2019-05-20T06:17:32.287Z,0.00
2019-05-20T06:18:32.258Z,0.00
2019-05-20T06:19:32.249Z,0.00
2019-05-20T06:20:32.218Z,0.00
2019-05-20T06:21:32.186Z,0.00
2019-05-20T06:22:32.170Z,0.00
2019-05-20T06:23:32.145Z,0.00
2019-05-20T06:24:32.154Z,0.00
2019-05-20T06:25:32.097Z,0.00
2019-05-20T06:26:32.074Z,0.00
2019-05-20T06:27:32.052Z,0.00
2019-05-20T06:28:32.027Z,0.00
2019-05-20T06:29:32.001Z,0.00
2019-05-20T06:30:31.979Z,0.00
2019-05-20T06:31:32.026Z,0.00
2019-05-20T06:32:31.932Z,0.00
2019-05-20T06:33:31.916Z,0.00
2019-05-20T06:34:31.860Z,0.00
2019-05-20T06:35:31.856Z,0.00
2019-05-20T06:36:31.834Z,0.00
2019-05-20T06:37:31.826Z,0.00
2019-05-20T06:38:31.796Z,0.00
2019-05-20T06:39:31.759Z,0.00
2019-05-20T06:40:31.741Z,0.00
2019-05-20T06:41:31.720Z,0.00
2019-05-20T06:42:31.691Z,0.00
2019-05-20T06:43:31.668Z,0.00
2019-05-20T06:44:31.649Z,0.00
2019-05-20T06:45:31.615Z,0.00
2019-05-20T06:46:31.599Z,0.00
2019-05-20T06:47:31.571Z,0.00
2019-05-20T06:48:31.554Z,0.00
2019-05-20T06:49:31.519Z,0.00
2019-05-20T06:50:31.505Z,0.00
2019-05-20T06:51:31.469Z,0.00
2019-05-20T06:52:35.875Z,0.00
2019-05-20T06:53:31.433Z,0.00
2019-05-20T06:54:31.407Z,0.00
2019-05-20T06:55:31.390Z,0.00
2019-05-20T06:56:31.354Z,0.00
2019-05-20T06:57:31.330Z,0.00
2019-05-20T06:58:31.312Z,0.00
2019-05-20T06:59:31.286Z,0.00
2019-05-20T07:00:31.247Z,0.00
2019-05-20T07:01:31.240Z,0.00
2019-05-20T07:02:31.209Z,0.00
2019-05-20T07:03:31.193Z,0.00
2019-05-20T07:04:31.172Z,0.00
2019-05-20T07:05:31.146Z,0.00
2019-05-20T07:06:45.870Z,0.00
2019-05-20T07:07:31.095Z,0.00
2019-05-20T07:08:31.065Z,0.00
2019-05-20T07:09:31.050Z,0.00
2019-05-20T07:10:31.031Z,0.00
2019-05-20T07:11:30.997Z,0.00
2019-05-20T07:12:40.541Z,0.00
2019-05-20T07:13:30.944Z,0.00
2019-05-20T07:14:30.910Z,0.00
2019-05-20T07:15:30.909Z,0.00
2019-05-20T07:16:30.863Z,0.00
2019-05-20T07:17:30.856Z,0.00
2019-05-20T07:18:30.837Z,0.00
2019-05-20T07:19:31.148Z,0.00
2019-05-20T07:20:30.786Z,0.00
2019-05-20T07:21:30.766Z,0.00
2019-05-20T07:22:30.743Z,0.00
2019-05-20T07:23:30.720Z,0.00
2019-05-20T07:24:30.701Z,0.00
2019-05-20T07:25:30.741Z,0.00
2019-05-20T07:26:30.678Z,0.00
2019-05-20T07:27:30.629Z,0.00
2019-05-20T07:28:30.616Z,0.00
2019-05-20T07:29:30.574Z,0.00
2019-05-20T07:30:30.554Z,0.00
2019-05-20T07:31:30.540Z,0.00
2019-05-20T07:32:30.514Z,0.00
2019-05-20T07:33:30.481Z,0.00
2019-05-20T07:34:30.466Z,0.00
2019-05-20T07:35:31.255Z,0.00
2019-05-20T07:36:30.414Z,0.00
2019-05-20T07:37:30.488Z,0.00
2019-05-20T07:38:30.372Z,0.00
2019-05-20T07:39:30.347Z,0.00
2019-05-20T07:40:30.385Z,0.00
2019-05-20T07:41:30.293Z,0.00
2019-05-20T07:42:30.280Z,0.00
2019-05-20T07:43:30.225Z,0.00
2019-05-20T07:44:30.231Z,0.00
2019-05-20T07:45:30.231Z,0.00
2019-05-20T07:46:30.191Z,0.00
2019-05-20T07:47:30.156Z,0.00
2019-05-20T07:48:30.244Z,0.00
2019-05-20T07:49:30.113Z,0.00
2019-05-20T07:50:30.077Z,0.00
2019-05-20T07:51:30.045Z,0.00
2019-05-20T07:52:30.059Z,0.00
2019-05-20T07:53:30.027Z,0.00
2019-05-20T07:54:29.992Z,0.00
2019-05-20T07:55:29.974Z,0.00
2019-05-20T07:56:29.947Z,0.00
2019-05-20T07:57:29.918Z,0.00
2019-05-20T07:58:33.459Z,0.00
2019-05-20T07:59:29.874Z,0.00
2019-05-20T08:00:29.850Z,0.00
2019-05-20T08:01:29.825Z,0.00
2019-05-20T08:02:29.804Z,0.00
2019-05-20T08:03:29.785Z,0.00
2019-05-20T08:04:30.044Z,0.00
2019-05-20T08:05:29.729Z,0.00
2019-05-20T08:06:29.705Z,0.00
2019-05-20T08:07:48.621Z,0.00
2019-05-20T08:08:29.644Z,0.00
2019-05-20T08:09:29.621Z,0.00
2019-05-20T08:10:29.616Z,0.00
2019-05-20T08:11:29.596Z,0.00
2019-05-20T08:12:29.573Z,0.00
2019-05-20T08:13:29.552Z,0.00
2019-05-20T08:14:29.519Z,0.00
2019-05-20T08:15:29.497Z,0.00
2019-05-20T08:16:29.479Z,0.00
2019-05-20T08:17:29.457Z,0.00
2019-05-20T08:18:29.427Z,0.00
2019-05-20T08:19:29.411Z,0.00
2019-05-20T08:20:29.380Z,0.00
2019-05-20T08:21:29.360Z,0.00
2019-05-20T08:22:29.348Z,0.00
2019-05-20T08:23:29.292Z,0.00
2019-05-20T08:24:29.308Z,0.00
2019-05-20T08:25:29.252Z,0.00
2019-05-20T08:26:29.301Z,0.00
2019-05-20T08:27:29.220Z,0.00
2019-05-20T08:28:29.196Z,0.00
2019-05-20T08:29:29.178Z,0.00
2019-05-20T08:30:29.154Z,0.00
2019-05-20T08:31:29.137Z,0.00
2019-05-20T08:32:29.098Z,0.00
2019-05-20T08:33:29.088Z,0.00
2019-05-20T08:34:29.064Z,0.00
2019-05-20T08:35:29.030Z,0.00
2019-05-20T08:36:29.004Z,0.00
2019-05-20T08:37:44.304Z,0.00
2019-05-20T08:38:28.977Z,0.00
2019-05-20T08:39:28.937Z,0.00
2019-05-20T08:40:28.931Z,0.00
2019-05-20T08:41:28.905Z,0.00
2019-05-20T08:42:28.914Z,0.00
2019-05-20T08:43:28.877Z,0.00
2019-05-20T08:44:28.825Z,0.00
2019-05-20T08:45:28.823Z,0.00
2019-05-20T08:46:28.782Z,0.00
2019-05-20T08:47:28.775Z,0.00
2019-05-20T08:48:28.796Z,0.00
2019-05-20T08:49:28.705Z,0.00
2019-05-20T08:50:28.663Z,0.00
2019-05-20T08:51:28.669Z,0.00
2019-05-20T08:52:28.617Z,0.00
2019-05-20T08:53:28.620Z,0.00
2019-05-20T08:54:28.594Z,0.00
2019-05-20T08:55:28.565Z,0.00
2019-05-20T08:56:28.551Z,0.00
2019-05-20T08:57:28.524Z,0.00
2019-05-20T08:58:28.494Z,0.00
2019-05-20T08:59:28.474Z,0.00
2019-05-20T09:00:28.465Z,0.00
2019-05-20T09:01:28.432Z,0.00
2019-05-20T09:02:28.404Z,0.00
2019-05-20T09:03:30.481Z,0.00
2019-05-20T09:04:28.352Z,0.00
2019-05-20T09:05:28.862Z,0.00
2019-05-20T09:06:28.318Z,0.00
2019-05-20T09:07:28.267Z,0.00
2019-05-20T09:08:28.254Z,0.00
2019-05-20T09:09:28.255Z,0.00
2019-05-20T09:10:28.223Z,0.00
2019-05-20T09:11:28.204Z,0.00
2019-05-20T09:12:28.167Z,0.00
2019-05-20T09:13:28.147Z,0.00
2019-05-20T09:14:28.143Z,0.00
2019-05-20T09:15:28.367Z,0.00
2019-05-20T09:16:28.070Z,0.00
2019-05-20T09:17:28.042Z,0.00
2019-05-20T09:18:28.030Z,0.00
2019-05-20T09:19:28.004Z,0.00
2019-05-20T09:20:27.987Z,0.00
2019-05-20T09:21:27.958Z,0.00
2019-05-20T09:22:27.946Z,0.00
2019-05-20T09:23:27.909Z,0.00
2019-05-20T09:24:27.898Z,0.00
2019-05-20T09:25:27.860Z,0.00
2019-05-20T09:26:27.819Z,0.00
2019-05-20T09:27:27.827Z,0.00
2019-05-20T09:28:27.793Z,0.00
2019-05-20T09:29:27.775Z,0.00
2019-05-20T09:30:27.756Z,0.00
2019-05-20T09:31:27.706Z,5.63
2019-05-20T09:32:27.727Z,5.63
2019-05-20T09:33:27.661Z,5.63
2019-05-20T09:34:27.655Z,5.63
2019-05-20T09:35:27.631Z,5.63
2019-05-20T09:36:27.611Z,11.25
2019-05-20T09:37:27.566Z,11.25
2019-05-20T09:38:27.549Z,11.25
2019-05-20T09:39:27.548Z,11.25
2019-05-20T09:40:27.499Z,11.25
2019-05-20T09:41:27.502Z,16.88
2019-05-20T09:42:27.482Z,16.88
2019-05-20T09:43:27.448Z,16.88
2019-05-20T09:44:27.425Z,22.50
2019-05-20T09:45:27.404Z,22.50
2019-05-20T09:46:27.383Z,22.50
2019-05-20T09:47:27.369Z,28.13
2019-05-20T09:48:27.333Z,28.13
2019-05-20T09:49:27.395Z,28.13
2019-05-20T09:50:27.266Z,33.75
2019-05-20T09:51:27.237Z,33.75
2019-05-20T09:52:27.218Z,39.38
2019-05-20T09:53:27.199Z,39.38
2019-05-20T09:54:27.202Z,39.38
2019-05-20T09:55:27.194Z,45.00
2019-05-20T09:56:27.146Z,45.00
2019-05-20T09:57:27.120Z,45.00
2019-05-20T09:58:27.098Z,50.63
2019-05-20T09:59:42.073Z,50.63
2019-05-20T10:00:27.050Z,56.25
2019-05-20T10:01:27.030Z,56.25
2019-05-20T10:02:36.397Z,56.25
2019-05-20T10:03:26.982Z,56.25
2019-05-20T10:04:26.965Z,56.25
2019-05-20T10:05:26.934Z,61.88
2019-05-20T10:06:26.892Z,67.50
2019-05-20T10:07:26.871Z,67.50
2019-05-20T10:08:37.038Z,73.13
2019-05-20T10:09:26.845Z,73.13
2019-05-20T10:10:26.828Z,78.75
2019-05-20T10:11:26.796Z,84.38
2019-05-20T10:12:44.574Z,90.00
2019-05-20T10:13:26.752Z,90.00
2019-05-20T10:14:26.832Z,95.63
2019-05-20T10:15:26.707Z,101.25
2019-05-20T10:16:26.685Z,112.50
2019-05-20T10:17:26.640Z,118.13
2019-05-20T10:18:36.582Z,118.13
2019-05-20T10:19:26.618Z,123.75
2019-05-20T10:20:26.632Z,123.75
2019-05-20T10:21:26.562Z,123.75
2019-05-20T10:22:26.546Z,129.38
2019-05-20T10:23:26.525Z,123.75
2019-05-20T10:24:26.494Z,129.38
2019-05-20T10:25:26.475Z,129.38
2019-05-20T10:26:26.454Z,129.38
2019-05-20T10:27:26.400Z,129.38
2019-05-20T10:28:26.405Z,129.38
2019-05-20T10:29:26.377Z,129.38
2019-05-20T10:30:26.364Z,135.00
2019-05-20T10:31:26.329Z,140.63
2019-05-20T10:32:26.308Z,146.25
2019-05-20T10:33:26.284Z,157.50
2019-05-20T10:34:26.262Z,157.50
2019-05-20T10:35:26.243Z,168.75
2019-05-20T10:36:26.244Z,168.75
2019-05-20T10:37:26.198Z,174.38
2019-05-20T10:38:26.192Z,180.00
2019-05-20T10:39:26.147Z,191.25
2019-05-20T10:40:26.120Z,208.13
2019-05-20T10:41:29.349Z,219.38
2019-05-20T10:42:26.075Z,219.38
2019-05-20T10:43:26.057Z,219.38
2019-05-20T10:44:26.037Z,219.38
2019-05-20T10:45:26.031Z,225.00
2019-05-20T10:46:25.983Z,230.63
2019-05-20T10:47:25.949Z,236.25
2019-05-20T10:48:25.946Z,230.63
2019-05-20T10:49:25.900Z,230.63
2019-05-20T10:50:25.890Z,236.25
2019-05-20T10:51:25.868Z,253.13
2019-05-20T10:52:25.845Z,264.38
2019-05-20T10:53:28.327Z,275.63
2019-05-20T10:54:25.823Z,275.63
2019-05-20T10:55:25.786Z,286.88
2019-05-20T10:56:25.755Z,298.13
2019-05-20T10:57:25.735Z,315.00
2019-05-20T10:58:25.716Z,315.00
2019-05-20T10:59:25.684Z,320.63
2019-05-20T11:00:25.643Z,303.75
2019-05-20T11:01:25.645Z,292.50
2019-05-20T11:02:25.620Z,292.50
2019-05-20T11:03:25.596Z,292.50
2019-05-20T11:04:25.569Z,292.50
2019-05-20T11:05:25.545Z,286.88
2019-05-20T11:06:25.503Z,292.50
2019-05-20T11:07:25.504Z,292.50
2019-05-20T11:08:25.482Z,298.13
2019-05-20T11:09:25.457Z,298.13
2019-05-20T11:10:25.432Z,298.13
2019-05-20T11:11:25.409Z,298.13
2019-05-20T11:12:25.391Z,298.13
2019-05-20T11:13:25.366Z,303.75
2019-05-20T11:14:25.362Z,309.38
2019-05-20T11:15:25.305Z,309.38
2019-05-20T11:16:25.279Z,309.38
2019-05-20T11:17:25.276Z,315.00
2019-05-20T11:18:25.250Z,331.88
2019-05-20T11:19:25.229Z,348.75
2019-05-20T11:20:25.202Z,360.00
2019-05-20T11:21:25.177Z,365.63
2019-05-20T11:22:25.167Z,371.25
2019-05-20T11:23:25.122Z,376.88
2019-05-20T11:24:25.196Z,382.50
2019-05-20T11:25:25.125Z,393.75
2019-05-20T11:26:25.069Z,393.75
2019-05-20T11:27:25.029Z,382.50
2019-05-20T11:28:25.020Z,371.25
2019-05-20T11:29:25.002Z,365.63
2019-05-20T11:30:24.955Z,360.00
2019-05-20T11:31:24.958Z,365.63
2019-05-20T11:32:24.932Z,376.88
2019-05-20T11:33:24.887Z,410.63
2019-05-20T11:34:24.889Z,433.13
2019-05-20T11:35:24.880Z,433.13
2019-05-20T11:36:24.973Z,433.13
2019-05-20T11:37:24.819Z,450.00
2019-05-20T11:38:25.060Z,472.50
2019-05-20T11:39:33.385Z,511.88
2019-05-20T11:40:24.755Z,551.25
2019-05-20T11:41:51.076Z,579.38
2019-05-20T11:42:24.710Z,579.38
2019-05-20T11:43:24.684Z,556.88
2019-05-20T11:44:24.666Z,562.50
2019-05-20T11:45:24.646Z,573.75
2019-05-20T11:46:24.615Z,562.50
2019-05-20T11:47:24.599Z,551.25
2019-05-20T11:48:24.570Z,562.50
2019-05-20T11:49:28.825Z,568.13
2019-05-20T11:50:24.523Z,556.88
2019-05-20T11:51:24.505Z,568.13
2019-05-20T11:52:24.497Z,601.88
2019-05-20T11:53:24.465Z,607.50
2019-05-20T11:54:24.430Z,613.13
2019-05-20T11:55:24.426Z,680.63
2019-05-20T11:56:24.378Z,753.75
2019-05-20T11:57:24.383Z,753.75
2019-05-20T11:58:24.353Z,725.63
2019-05-20T11:59:24.332Z,742.50
2019-05-20T12:00:24.294Z,742.50
2019-05-20T12:01:24.286Z,748.13
2019-05-20T12:02:24.269Z,731.25
2019-05-20T12:03:24.239Z,697.50
2019-05-20T12:04:24.236Z,663.75
2019-05-20T12:05:24.204Z,646.88
2019-05-20T12:06:24.172Z,646.88
2019-05-20T12:07:24.152Z,675.00
2019-05-20T12:08:24.111Z,697.50
2019-05-20T12:09:24.087Z,736.88
2019-05-20T12:10:24.091Z,725.63
2019-05-20T12:11:24.065Z,691.88
2019-05-20T12:12:24.040Z,669.38
2019-05-20T12:13:24.023Z,663.75
2019-05-20T12:14:24.012Z,652.50
2019-05-20T12:15:23.955Z,669.38
2019-05-20T12:16:23.942Z,686.25
2019-05-20T12:17:23.918Z,675.00
2019-05-20T12:18:23.908Z,731.25
2019-05-20T12:19:23.887Z,770.63
2019-05-20T12:20:23.862Z,810.00
2019-05-20T12:21:23.844Z,860.63
2019-05-20T12:22:23.832Z,888.75
2019-05-20T12:23:23.781Z,843.75
2019-05-20T12:24:23.774Z,810.00
2019-05-20T12:25:23.785Z,781.88
2019-05-20T12:26:23.732Z,770.63
2019-05-20T12:27:23.714Z,765.00
2019-05-20T12:28:23.694Z,776.25
2019-05-20T12:29:23.677Z,776.25
2019-05-20T12:30:23.664Z,798.75
2019-05-20T12:31:23.625Z,787.50
2019-05-20T12:32:23.609Z,776.25
2019-05-20T12:33:23.571Z,798.75
2019-05-20T12:34:23.569Z,804.38
2019-05-20T12:35:23.544Z,849.38
2019-05-20T12:36:23.529Z,871.88
2019-05-20T12:37:23.510Z,894.38
2019-05-20T12:38:23.461Z,888.75
2019-05-20T12:39:23.521Z,866.25
2019-05-20T12:40:23.435Z,804.38
2019-05-20T12:41:23.414Z,798.75
2019-05-20T12:42:23.392Z,905.63
2019-05-20T12:43:23.377Z,928.13
2019-05-20T12:44:23.368Z,866.25
2019-05-20T12:45:23.336Z,838.13
2019-05-20T12:46:23.322Z,843.75
2019-05-20T12:47:23.292Z,855.00
2019-05-20T12:48:23.264Z,860.63
2019-05-20T12:49:23.419Z,883.13
2019-05-20T12:50:23.233Z,838.13
2019-05-20T12:51:23.201Z,832.50
2019-05-20T12:52:23.185Z,866.25
2019-05-20T12:53:23.167Z,871.88
2019-05-20T12:54:23.134Z,933.75
2019-05-20T12:55:23.097Z,984.38
2019-05-20T12:56:23.098Z,967.50
2019-05-20T12:57:23.077Z,973.13
2019-05-20T12:58:23.069Z,922.50
2019-05-20T12:59:23.035Z,528.75
2019-05-20T13:00:23.031Z,376.88
2019-05-20T13:01:22.995Z,478.13
2019-05-20T13:02:22.982Z,371.25
2019-05-20T13:03:23.011Z,393.75
2019-05-20T13:04:22.932Z,438.75
2019-05-20T13:05:22.918Z,691.88